createdAt,value
2019-03-29T00:01:08.177Z,21.40
2019-03-29T00:03:34.313Z,20.00
2019-03-29T00:06:00.964Z,18.57
2019-03-29T00:08:26.976Z,19.70
2019-03-29T00:10:52.989Z,21.30
2019-03-29T00:13:19.013Z,24.97
2019-03-29T00:15:45.004Z,20.80
2019-03-29T00:18:11.017Z,21.10
2019-03-29T00:20:37.020Z,23.07
2019-03-29T00:23:03.013Z,21.23
2019-03-29T00:25:29.087Z,25.43
2019-03-29T00:27:55.084Z,26.27
2019-03-29T00:30:21.411Z,25.23
2019-03-29T00:32:48.210Z,22.27
2019-03-29T00:35:14.253Z,29.80
2019-03-29T00:37:52.952Z,23.90
2019-03-29T00:40:08.259Z,24.57
2019-03-29T00:42:34.374Z,18.13
2019-03-29T00:45:00.442Z,19.83
2019-03-29T00:47:26.514Z,22.53
2019-03-29T00:49:52.592Z,24.67
2019-03-29T00:52:18.629Z,20.10
2019-03-29T00:54:44.746Z,23.33
2019-03-29T00:57:10.787Z,23.50
2019-03-29T00:59:36.778Z,22.97
2019-03-29T01:02:02.790Z,20.67
2019-03-29T01:04:29.110Z,18.40
2019-03-29T01:06:55.347Z,26.30
2019-03-29T01:09:21.361Z,18.90
2019-03-29T01:11:47.361Z,22.67
2019-03-29T01:14:13.359Z,21.73
2019-03-29T01:16:39.486Z,17.70
2019-03-29T01:19:05.467Z,19.83
2019-03-29T01:21:31.486Z,21.57
2019-03-29T01:23:57.566Z,18.10
2019-03-29T01:26:23.707Z,21.70
2019-03-29T01:28:49.901Z,17.83
2019-03-29T01:31:16.007Z,19.00
2019-03-29T01:33:42.000Z,18.20
2019-03-29T01:36:08.035Z,23.00
2019-03-29T01:38:34.135Z,18.40
2019-03-29T01:41:01.001Z,17.87
2019-03-29T01:43:27.128Z,18.80
2019-03-29T01:45:53.116Z,18.47
2019-03-29T01:48:19.404Z,28.60
2019-03-29T01:50:45.394Z,19.00
2019-03-29T01:53:12.042Z,20.57
2019-03-29T01:55:40.211Z,21.00
2019-03-29T01:58:06.226Z,18.60
2019-03-29T02:00:33.136Z,20.60
2019-03-29T02:02:59.455Z,18.33
2019-03-29T02:05:25.444Z,20.03
2019-03-29T02:07:51.422Z,23.47
2019-03-29T02:10:17.427Z,17.83
2019-03-29T02:12:43.418Z,21.90
2019-03-29T02:15:09.624Z,24.43
2019-03-29T02:17:36.115Z,24.43
2019-03-29T02:20:05.184Z,23.40
2019-03-29T02:22:31.200Z,21.20
2019-03-29T02:24:57.309Z,18.60
2019-03-29T02:27:23.296Z,24.13
2019-03-29T02:29:49.334Z,22.43
2019-03-29T02:32:15.376Z,20.73
2019-03-29T02:34:43.543Z,21.13
2019-03-29T02:37:09.369Z,18.40
2019-03-29T02:39:35.454Z,16.93
2019-03-29T02:42:01.480Z,18.77
2019-03-29T02:44:27.611Z,24.03
2019-03-29T02:46:54.202Z,16.60
2019-03-29T02:49:20.573Z,17.53
2019-03-29T02:51:48.506Z,18.33
2019-03-29T02:54:14.590Z,16.73
2019-03-29T02:56:40.620Z,17.80
2019-03-29T02:59:06.628Z,20.10
2019-03-29T03:01:32.676Z,19.77
2019-03-29T03:03:58.686Z,18.20
2019-03-29T03:06:24.676Z,18.80
2019-03-29T03:08:50.661Z,24.30
2019-03-29T03:11:16.682Z,18.20
2019-03-29T03:13:42.734Z,18.10
2019-03-29T03:16:08.747Z,18.40
2019-03-29T03:18:34.747Z,19.50
2019-03-29T03:21:00.733Z,16.80
2019-03-29T03:23:26.836Z,18.27
2019-03-29T03:25:52.928Z,22.47
2019-03-29T03:28:19.020Z,20.60
2019-03-29T03:30:45.030Z,17.43
2019-03-29T03:33:11.263Z,16.47
2019-03-29T03:35:37.325Z,20.10
2019-03-29T03:38:03.469Z,20.50
2019-03-29T03:40:29.685Z,16.40
2019-03-29T03:42:55.688Z,19.33
2019-03-29T03:45:21.669Z,22.37
2019-03-29T03:47:47.672Z,18.77
2019-03-29T03:50:29.744Z,18.77
2019-03-29T03:52:55.773Z,15.77
2019-03-29T03:55:22.289Z,19.60
2019-03-29T03:57:48.626Z,17.03
2019-03-29T04:00:18.436Z,16.77
2019-03-29T04:02:44.421Z,21.23
2019-03-29T04:05:10.429Z,15.23
2019-03-29T04:07:36.437Z,16.80
2019-03-29T04:10:05.258Z,17.47
2019-03-29T04:12:31.248Z,16.97
2019-03-29T04:14:57.282Z,17.57
2019-03-29T04:17:23.315Z,20.93
2019-03-29T04:19:49.319Z,14.97
2019-03-29T04:22:15.309Z,19.50
2019-03-29T04:24:41.323Z,20.63
2019-03-29T04:27:07.312Z,20.17
2019-03-29T04:29:33.339Z,16.20
2019-03-29T04:31:59.336Z,18.40
2019-03-29T04:34:25.470Z,16.67
2019-03-29T04:36:51.500Z,24.53
2019-03-29T04:39:17.480Z,17.57
2019-03-29T04:41:43.487Z,21.10
2019-03-29T04:44:09.579Z,16.67
2019-03-29T04:46:35.604Z,17.70
2019-03-29T04:49:01.708Z,19.80
2019-03-29T04:51:27.895Z,19.63
2019-03-29T04:53:53.943Z,17.03
2019-03-29T04:56:19.969Z,33.70
2019-03-29T04:58:45.991Z,13.17
2019-03-29T05:01:11.972Z,16.50
2019-03-29T05:03:37.999Z,17.60
2019-03-29T05:06:04.019Z,17.73
2019-03-29T05:08:30.167Z,18.40
2019-03-29T05:10:56.298Z,14.83
2019-03-29T05:13:22.310Z,21.93
2019-03-29T05:15:48.305Z,23.43
2019-03-29T05:18:14.389Z,17.67
2019-03-29T05:20:40.383Z,18.67
2019-03-29T05:23:06.358Z,13.97
2019-03-29T05:25:32.410Z,23.40
2019-03-29T05:27:58.428Z,17.83
2019-03-29T05:30:24.426Z,21.90
2019-03-29T05:32:50.728Z,19.53
2019-03-29T05:35:16.779Z,18.80
2019-03-29T05:37:42.775Z,21.07
2019-03-29T05:40:09.016Z,14.60
2019-03-29T05:42:35.114Z,17.20
2019-03-29T05:45:01.126Z,20.67
2019-03-29T05:47:27.127Z,18.67
2019-03-29T05:49:53.119Z,18.17
2019-03-29T05:52:19.236Z,22.20
2019-03-29T05:54:45.261Z,17.87
2019-03-29T05:57:11.260Z,16.20
2019-03-29T05:59:37.238Z,14.93
2019-03-29T06:02:03.271Z,19.70
2019-03-29T06:04:29.356Z,19.67
2019-03-29T06:06:55.388Z,14.07
2019-03-29T06:09:21.384Z,20.73
2019-03-29T06:11:47.402Z,14.53
2019-03-29T06:14:13.411Z,18.23
2019-03-29T06:16:39.600Z,17.27
2019-03-29T06:19:05.702Z,16.60
2019-03-29T06:21:31.685Z,15.37
2019-03-29T06:23:57.726Z,13.73
2019-03-29T06:26:25.208Z,20.03
2019-03-29T06:28:51.217Z,19.93
2019-03-29T06:31:17.265Z,19.63
2019-03-29T06:33:44.710Z,17.90
2019-03-29T06:36:13.918Z,16.50
2019-03-29T06:38:41.262Z,16.07
2019-03-29T06:41:07.274Z,12.83
2019-03-29T06:43:33.279Z,15.90
2019-03-29T06:45:59.305Z,20.50
2019-03-29T06:48:25.317Z,15.00
2019-03-29T06:50:51.638Z,15.00
2019-03-29T06:53:17.804Z,16.10
2019-03-29T06:55:43.802Z,15.10
2019-03-29T06:58:09.777Z,19.50
2019-03-29T07:00:35.773Z,21.33
2019-03-29T07:03:01.923Z,14.10
2019-03-29T07:05:28.043Z,16.30
2019-03-29T07:07:54.170Z,17.43
2019-03-29T07:10:20.155Z,16.43
2019-03-29T07:12:46.249Z,16.67
2019-03-29T07:15:12.332Z,17.30
2019-03-29T07:17:38.563Z,13.63
2019-03-29T07:20:05.574Z,13.37
2019-03-29T07:22:34.519Z,18.70
2019-03-29T07:24:59.491Z,17.73
2019-03-29T07:27:25.523Z,15.30
2019-03-29T07:29:51.507Z,17.60
2019-03-29T07:32:17.574Z,17.33
2019-03-29T07:34:43.604Z,18.93
2019-03-29T07:37:09.706Z,14.27
2019-03-29T07:39:35.720Z,17.43
2019-03-29T07:42:01.752Z,14.80
2019-03-29T07:44:27.799Z,11.30
2019-03-29T07:46:53.837Z,11.07
2019-03-29T08:16:13.230Z,12.80
2019-03-29T08:18:39.310Z,13.20
2019-03-29T08:21:05.303Z,13.83
2019-03-29T08:23:31.308Z,13.23
2019-03-29T11:35:58.399Z,21.53
2019-03-29T11:46:22.861Z,25.60
2019-03-29T12:14:29.450Z,27.37
2019-03-29T12:47:24.298Z,27.33
2019-03-29T12:50:30.491Z,33.10
2019-03-29T12:52:56.767Z,28.37
2019-03-29T13:08:15.766Z,31.10
2019-03-29T13:10:54.941Z,28.67
2019-03-29T13:13:35.728Z,29.33
2019-03-29T13:26:02.384Z,28.70
2019-03-29T13:29:01.699Z,30.70
2019-03-29T13:34:52.009Z,30.70
2019-03-29T13:37:18.092Z,34.40
2019-03-29T13:40:23.861Z,31.60
2019-03-29T13:43:03.206Z,29.20
2019-03-29T13:45:42.344Z,28.53
2019-03-29T13:48:22.338Z,28.60
2019-03-29T13:51:02.399Z,31.13
2019-03-29T13:53:43.226Z,32.27
2019-03-29T13:59:22.457Z,28.70
2019-03-29T14:05:17.323Z,29.37
2019-03-29T14:07:58.162Z,29.93
2019-03-29T14:10:24.184Z,31.57
2019-03-29T14:12:50.139Z,28.70
2019-03-29T14:15:48.928Z,26.97
2019-03-29T14:25:13.814Z,25.63
2019-03-29T14:30:50.564Z,26.90
2019-03-29T14:33:55.157Z,29.67
2019-03-29T14:36:54.922Z,28.60
2019-03-29T14:39:33.936Z,28.10
2019-03-29T14:42:34.106Z,27.77
2019-03-29T14:45:33.342Z,29.80
2019-03-29T14:47:59.455Z,28.43
2019-03-29T14:50:45.489Z,29.40
2019-03-29T14:53:11.685Z,27.50
2019-03-29T14:55:57.560Z,28.37
2019-03-29T14:58:36.730Z,29.83
2019-03-29T15:14:14.118Z,30.67
2019-03-29T15:16:53.526Z,31.10
2019-03-29T15:22:41.737Z,29.93
2019-03-29T15:25:20.705Z,31.00
2019-03-29T15:27:46.755Z,29.73
2019-03-29T15:30:32.706Z,34.20
2019-03-29T15:33:11.776Z,30.57
2019-03-29T15:48:35.232Z,31.57
2019-03-29T15:51:01.310Z,31.23
2019-03-29T15:53:27.291Z,33.67
2019-03-29T15:55:53.320Z,31.70
2019-03-29T15:58:19.306Z,32.00
2019-03-29T16:00:45.340Z,31.93
2019-03-29T16:03:11.334Z,31.27
2019-03-29T16:05:37.299Z,32.13
2019-03-29T16:08:03.320Z,34.10
2019-03-29T16:10:29.295Z,30.77
2019-03-29T16:12:55.311Z,33.53
2019-03-29T16:15:33.915Z,39.63
2019-03-29T16:17:49.257Z,31.30
2019-03-29T16:20:15.563Z,32.87
2019-03-29T16:22:41.886Z,30.37
2019-03-29T16:25:07.955Z,30.50
2019-03-29T16:27:33.928Z,30.93
2019-03-29T16:29:59.931Z,32.47
2019-03-29T16:32:25.939Z,30.60
2019-03-29T16:34:52.605Z,31.23
2019-03-29T16:37:18.584Z,31.57
2019-03-29T16:39:44.603Z,32.00
2019-03-29T16:42:10.607Z,35.13
2019-03-29T16:44:36.575Z,39.53
2019-03-29T16:47:02.683Z,30.47
2019-03-29T16:49:28.668Z,33.23
2019-03-29T16:51:54.702Z,31.60
2019-03-29T16:54:20.819Z,31.40
2019-03-29T16:56:46.805Z,32.13
2019-03-29T16:59:12.827Z,32.80
2019-03-29T17:01:38.859Z,34.63
2019-03-29T17:04:04.979Z,32.87
2019-03-29T17:06:30.952Z,32.87
2019-03-29T17:08:56.986Z,31.37
2019-03-29T17:11:22.999Z,31.70
2019-03-29T17:13:49.118Z,33.83
2019-03-29T17:16:15.198Z,31.70
2019-03-29T17:18:41.218Z,32.40
2019-03-29T17:21:07.240Z,31.87
2019-03-29T17:23:33.436Z,33.90
2019-03-29T17:25:59.432Z,32.70
2019-03-29T17:28:25.429Z,30.33
2019-03-29T17:30:53.345Z,32.77
2019-03-29T17:33:22.302Z,31.77
2019-03-29T17:35:47.359Z,30.70
2019-03-29T17:38:13.393Z,30.87
2019-03-29T17:40:39.570Z,29.23
2019-03-29T17:43:05.605Z,33.43
2019-03-29T17:45:31.640Z,29.80
2019-03-29T17:47:57.643Z,29.33
2019-03-29T17:50:25.331Z,31.67
2019-03-29T17:52:51.843Z,30.17
2019-03-29T17:55:17.828Z,28.70
2019-03-29T17:57:43.981Z,30.40
2019-03-29T18:00:11.852Z,30.40
2019-03-29T18:02:37.864Z,31.30
2019-03-29T18:05:05.389Z,31.73
2019-03-29T18:07:31.495Z,29.80
2019-03-29T18:09:57.473Z,30.33
2019-03-29T18:12:23.673Z,31.33
2019-03-29T18:14:49.819Z,32.40
2019-03-29T18:17:16.010Z,32.93
2019-03-29T18:19:42.017Z,36.23
2019-03-29T18:22:08.060Z,37.37
2019-03-29T18:24:34.082Z,40.33
2019-03-29T18:27:00.096Z,41.70
2019-03-29T18:29:26.199Z,41.73
2019-03-29T18:31:52.408Z,40.00
2019-03-29T18:34:18.508Z,39.27
2019-03-29T18:36:45.623Z,35.40
2019-03-29T18:39:11.644Z,41.70
2019-03-29T18:41:37.625Z,41.33
2019-03-29T18:44:03.702Z,39.10
2019-03-29T18:46:43.696Z,39.47
2019-03-29T18:48:57.695Z,36.87
2019-03-29T18:51:23.684Z,38.77
2019-03-29T18:53:49.725Z,41.53
2019-03-29T18:56:15.743Z,43.00
2019-03-29T18:58:41.824Z,39.20
2019-03-29T19:01:08.084Z,40.43
2019-03-29T19:03:34.316Z,45.60
2019-03-29T19:06:00.354Z,41.90
2019-03-29T19:08:26.332Z,40.60
2019-03-29T19:10:52.414Z,54.23
2019-03-29T19:13:18.778Z,74.27
2019-03-29T19:15:44.813Z,47.30
2019-03-29T19:18:10.981Z,44.50
2019-03-29T19:20:37.060Z,41.30
2019-03-29T19:23:03.072Z,47.77
2019-03-29T19:25:29.205Z,40.37
2019-03-29T19:27:55.577Z,41.30
2019-03-29T19:30:21.892Z,37.63
2019-03-29T19:32:48.425Z,44.53
2019-03-29T19:35:14.526Z,43.03
2019-03-29T19:37:40.625Z,46.23
2019-03-29T19:40:06.740Z,42.13
2019-03-29T19:42:33.068Z,43.10
2019-03-29T19:44:59.428Z,42.13
2019-03-29T19:47:25.662Z,45.97
2019-03-29T19:49:55.114Z,45.87
2019-03-29T19:52:24.884Z,47.67
2019-03-29T19:54:49.503Z,58.70
2019-03-29T19:57:15.648Z,54.63
2019-03-29T19:59:41.767Z,54.33
2019-03-29T20:02:07.796Z,56.77
2019-03-29T20:04:33.843Z,53.33
2019-03-29T20:06:59.896Z,46.60
2019-03-29T20:09:25.879Z,48.43
2019-03-29T20:11:51.921Z,48.70
2019-03-29T20:14:17.944Z,46.40
2019-03-29T20:16:43.982Z,48.67
2019-03-29T20:19:10.105Z,49.73
2019-03-29T20:21:36.128Z,45.63
2019-03-29T20:24:02.113Z,44.60
2019-03-29T20:26:28.202Z,45.13
2019-03-29T20:28:54.249Z,44.73
2019-03-29T20:31:20.248Z,47.57
2019-03-29T20:33:46.285Z,46.20
2019-03-29T20:36:12.278Z,50.57
2019-03-29T20:38:38.291Z,54.17
2019-03-29T20:41:04.447Z,50.07
2019-03-29T20:43:30.500Z,49.50
2019-03-29T20:45:56.462Z,50.30
2019-03-29T20:48:22.517Z,48.10
2019-03-29T20:50:48.573Z,49.90
2019-03-29T20:53:14.588Z,51.70
2019-03-29T20:55:40.668Z,55.80
2019-03-29T20:58:07.042Z,58.93
2019-03-29T21:00:33.171Z,55.33
2019-03-29T21:02:59.535Z,53.10
2019-03-29T21:05:26.098Z,56.33
2019-03-29T21:07:54.857Z,56.13
2019-03-29T21:10:20.279Z,54.33
2019-03-29T21:12:48.466Z,51.87
2019-03-29T21:15:15.655Z,52.03
2019-03-29T21:17:55.599Z,51.80
2019-03-29T21:20:10.708Z,56.33
2019-03-29T21:22:37.286Z,50.83
2019-03-29T21:25:05.374Z,49.37
2019-03-29T21:27:31.465Z,48.13
2019-03-29T21:29:57.537Z,49.30
2019-03-29T21:32:23.549Z,52.70
2019-03-29T21:34:49.623Z,47.10
2019-03-29T21:37:15.817Z,45.10
2019-03-29T21:39:41.926Z,50.20
2019-03-29T21:42:07.996Z,50.97
2019-03-29T21:44:34.331Z,58.27
2019-03-29T21:47:00.436Z,49.23
2019-03-29T21:49:26.588Z,49.90
2019-03-29T21:51:52.612Z,48.83
2019-03-29T21:54:18.689Z,55.43
2019-03-29T21:56:44.703Z,50.97
2019-03-29T21:59:10.748Z,54.30
2019-03-29T22:01:36.983Z,48.97
2019-03-29T22:04:03.112Z,54.13
2019-03-29T22:06:29.151Z,48.97
2019-03-29T22:08:55.128Z,56.57
2019-03-29T22:11:21.742Z,56.67
2019-03-29T22:13:47.811Z,53.53
2019-03-29T22:16:13.863Z,50.37
2019-03-29T22:18:39.936Z,55.27
2019-03-29T22:21:06.142Z,55.07
2019-03-29T22:23:32.148Z,52.83
2019-03-29T22:25:58.128Z,53.53
2019-03-29T22:28:24.130Z,57.57
2019-03-29T22:30:50.112Z,55.53
2019-03-29T22:33:16.152Z,52.17
2019-03-29T22:35:42.143Z,56.90
2019-03-29T22:38:08.135Z,58.60
2019-03-29T22:40:34.169Z,55.80
2019-03-29T22:43:00.185Z,49.00
2019-03-29T22:45:26.185Z,52.03
2019-03-29T22:47:52.172Z,53.53
2019-03-29T22:50:18.157Z,57.47
2019-03-29T22:52:44.207Z,52.50
2019-03-29T22:55:10.211Z,51.80
2019-03-29T22:57:36.198Z,50.73
2019-03-29T23:00:15.025Z,53.33
2019-03-29T23:02:41.274Z,53.50
2019-03-29T23:05:07.577Z,50.07
2019-03-29T23:07:33.559Z,53.37
2019-03-29T23:09:59.571Z,52.73
2019-03-29T23:12:25.571Z,55.97
2019-03-29T23:14:51.652Z,53.00
2019-03-29T23:17:17.667Z,57.83
2019-03-29T23:19:43.636Z,55.00
2019-03-29T23:22:10.816Z,58.47
2019-03-29T23:24:36.807Z,51.30
2019-03-29T23:27:02.801Z,58.17
2019-03-29T23:29:28.767Z,57.53
2019-03-29T23:31:54.790Z,55.53
2019-03-29T23:34:20.910Z,54.90
2019-03-29T23:36:47.182Z,59.60
2019-03-29T23:39:13.217Z,56.47
2019-03-29T23:41:39.248Z,58.93
2019-03-29T23:44:05.241Z,52.10
2019-03-29T23:46:31.231Z,55.97
2019-03-29T23:48:57.268Z,55.90
2019-03-29T23:51:23.238Z,57.23
2019-03-29T23:53:49.236Z,54.83
2019-03-29T23:56:15.225Z,53.20
2019-03-29T23:58:41.994Z,51.73
